Time;durP1;ratioP1;P1;durP2;ratioP2;P2;SDS_P1;SDS_P2;PMS_P1;PMS_P2;Temp;Humidity;BMP_temperature;BMP_pressure;BME280_temperature;BME280_humidity;BME280_pressure;Samples;Min_cycle;Max_cycle;Signal;HPM_P1;HPM_P2
2023/04/12 04:01:04;;;;;;;0.90;0.80;;;4.40;99.90;;;;;;5571389;23;20240;-67
2023/04/12 04:03:33;;;;;;;0.70;0.70;;;4.50;99.90;;;;;;4911265;29;20210;-68
2023/04/12 04:06:00;;;;;;;0.75;0.75;;;4.50;99.90;;;;;;4909234;29;20582;-67
2023/04/12 04:08:27;;;;;;;2.15;2.03;;;4.50;99.90;;;;;;4926343;29;20233;-67
2023/04/12 04:10:54;;;;;;;1.10;1.08;;;4.50;99.90;;;;;;4921771;29;20237;-67
2023/04/12 04:13:21;;;;;;;3.60;0.77;;;4.50;99.90;;;;;;4911939;29;20277;-67
2023/04/12 04:15:52;;;;;;;1.77;1.77;;;4.60;99.90;;;;;;4918167;23;20281;-71
2023/04/12 04:18:20;;;;;;;1.90;1.90;;;4.60;99.90;;;;;;4903427;29;20202;-71
2023/04/12 04:20:46;;;;;;;0.50;0.50;;;4.60;99.90;;;;;;4896590;29;20226;-71
2023/04/12 04:23:14;;;;;;;1.50;0.70;;;4.70;99.90;;;;;;4903011;29;20234;-69
2023/04/12 04:25:40;;;;;;;1.30;0.70;;;4.70;99.90;;;;;;4889879;29;20756;-69
2023/04/12 04:28:08;;;;;;;0.80;0.80;;;4.80;99.90;;;;;;4877187;29;20226;-69
2023/04/12 04:30:37;;;;;;;0.82;0.82;;;4.80;99.90;;;;;;4883595;29;20355;-69
2023/04/12 04:33:04;;;;;;;0.65;0.65;;;4.80;99.90;;;;;;4885467;29;20784;-68
2023/04/12 04:35:32;;;;;;;0.40;0.40;;;4.90;99.90;;;;;;4883552;29;20723;-69
2023/04/12 04:38:00;;;;;;;0.88;0.88;;;4.90;99.90;;;;;;4867044;29;20216;-69
2023/04/12 04:40:27;;;;;;;1.25;0.77;;;5.00;99.90;;;;;;4870183;29;20223;-69
2023/04/12 04:42:54;;;;;;;0.75;0.75;;;5.10;99.90;;;;;;4885386;29;20223;-69
2023/04/12 04:45:25;;;;;;;1.30;1.15;;;5.20;99.90;;;;;;4881894;29;20245;-70
2023/04/12 04:47:52;;;;;;;0.65;0.45;;;5.20;99.90;;;;;;4879952;29;20231;-70
2023/04/12 04:50:21;;;;;;;0.88;0.88;;;5.20;99.90;;;;;;4880550;29;20231;-69
2023/04/12 04:52:49;;;;;;;0.82;0.70;;;5.20;99.90;;;;;;4891831;29;20214;-69
2023/04/12 04:55:17;;;;;;;0.30;0.30;;;5.10;99.90;;;;;;4872841;29;20244;-69
2023/04/12 04:57:44;;;;;;;0.47;0.47;;;5.20;99.90;;;;;;4873544;29;20263;-69
2023/04/12 05:00:12;;;;;;;0.65;0.52;;;5.20;99.90;;;;;;4879675;29;20315;-69
2023/04/12 05:02:41;;;;;;;0.85;0.85;;;5.20;99.90;;;;;;4888672;29;20241;-69
2023/04/12 05:05:09;;;;;;;9.35;1.88;;;5.20;99.90;;;;;;4886859;29;20238;-70
2023/04/12 05:07:37;;;;;;;0.40;0.40;;;5.20;99.90;;;;;;4874497;29;20228;-69
2023/04/12 05:10:06;;;;;;;1.02;1.00;;;5.20;99.90;;;;;;4884083;29;20204;-69
2023/04/12 05:12:33;;;;;;;0.70;0.70;;;5.30;99.90;;;;;;4889840;29;20505;-69
2023/04/12 05:15:00;;;;;;;1.38;1.38;;;5.30;99.90;;;;;;4882471;29;20612;-69
2023/04/12 05:17:27;;;;;;;0.43;0.43;;;5.40;99.90;;;;;;4882416;29;20206;-69
2023/04/12 05:19:54;;;;;;;0.20;0.20;;;5.40;99.90;;;;;;4879151;29;20229;-69
2023/04/12 05:22:21;;;;;;;2.28;1.00;;;5.40;99.90;;;;;;4883847;29;20637;-70
2023/04/12 05:24:48;;;;;;;0.65;0.65;;;5.50;99.90;;;;;;4871428;29;20219;-70
2023/04/12 05:27:17;;;;;;;0.60;0.60;;;5.50;99.90;;;;;;4878545;29;20207;-69
2023/04/12 05:29:44;;;;;;;0.52;0.52;;;5.60;99.90;;;;;;4877794;29;20261;-69
2023/04/12 05:32:11;;;;;;;0.57;0.57;;;5.50;99.90;;;;;;4885678;29;20774;-69
2023/04/12 05:34:38;;;;;;;1.60;1.58;;;5.60;99.90;;;;;;4881101;29;20239;-70
2023/04/12 05:37:05;;;;;;;0.60;0.60;;;5.70;99.90;;;;;;4870988;29;20220;-70
2023/04/12 05:39:33;;;;;;;1.15;1.15;;;5.90;99.90;;;;;;4888883;29;20219;-68
2023/04/12 05:41:59;;;;;;;0.90;0.90;;;6.00;99.90;;;;;;4882029;29;20253;-70
2023/04/12 05:44:27;;;;;;;0.75;0.75;;;6.20;99.90;;;;;;4871028;29;20215;-70
2023/04/12 05:46:54;;;;;;;0.85;0.82;;;6.40;99.90;;;;;;4872425;29;20242;-71
2023/04/12 05:49:21;;;;;;;0.32;0.32;;;6.60;99.90;;;;;;4877370;29;20212;-71
2023/04/12 05:51:48;;;;;;;1.30;1.20;;;6.70;99.90;;;;;;4885644;29;20213;-70
2023/04/12 05:54:14;;;;;;;1.10;1.10;;;6.90;99.90;;;;;;4884614;29;20347;-71
2023/04/12 05:56:41;;;;;;;2.25;2.13;;;7.10;99.90;;;;;;4870851;29;20619;-70
2023/04/12 05:59:10;;;;;;;1.27;1.27;;;7.30;99.90;;;;;;4869509;29;20235;-72
2023/04/12 06:01:41;;;;;;;0.40;0.40;;;7.20;99.90;;;;;;4869872;29;20212;-71
2023/04/12 06:04:08;;;;;;;10.13;2.72;;;6.90;99.90;;;;;;4884623;29;20203;-71
2023/04/12 06:06:35;;;;;;;0.60;0.60;;;6.80;99.90;;;;;;4880095;29;20263;-71
2023/04/12 06:09:03;;;;;;;1.50;1.50;;;6.70;99.90;;;;;;4879113;29;20204;-70
2023/04/12 06:11:30;;;;;;;0.95;0.90;;;6.60;99.90;;;;;;4869252;29;20216;-70
2023/04/12 06:13:57;;;;;;;1.48;1.45;;;6.70;99.90;;;;;;4874281;29;20222;-70
2023/04/12 06:16:24;;;;;;;9.05;0.95;;;6.70;99.90;;;;;;4872876;29;20240;-71
2023/04/12 06:18:52;;;;;;;0.93;0.90;;;6.70;99.90;;;;;;4870044;29;20231;-70
2023/04/12 06:21:19;;;;;;;0.47;0.47;;;6.80;99.90;;;;;;4872795;29;20211;-70
2023/04/12 06:23:45;;;;;;;4.88;0.85;;;6.80;99.90;;;;;;4884509;29;20215;-69
2023/04/12 06:26:12;;;;;;;1.90;1.85;;;6.80;99.90;;;;;;4880551;29;20238;-70
2023/04/12 06:28:39;;;;;;;0.82;0.80;;;6.90;99.90;;;;;;4880502;29;20212;-71
2023/04/12 06:31:06;;;;;;;1.60;1.60;;;7.00;99.90;;;;;;4878065;29;20204;-69
2023/04/12 06:33:35;;;;;;;2.13;2.13;;;7.00;99.90;;;;;;4875063;29;20256;-70
2023/04/12 06:36:03;;;;;;;1.48;1.48;;;7.10;99.90;;;;;;4882273;29;20238;-70
2023/04/12 06:38:30;;;;;;;0.80;0.68;;;7.20;99.90;;;;;;4887655;29;20223;-69
2023/04/12 06:40:57;;;;;;;1.08;1.08;;;7.30;99.90;;;;;;4877693;29;20208;-69
2023/04/12 06:43:24;;;;;;;2.15;0.90;;;7.40;99.90;;;;;;4878633;29;20298;-70
2023/04/12 06:45:50;;;;;;;1.30;1.17;;;7.50;99.90;;;;;;4886137;29;20227;-69
2023/04/12 06:48:17;;;;;;;1.05;0.85;;;7.60;99.90;;;;;;4870987;29;20693;-71
2023/04/12 06:50:45;;;;;;;1.67;1.00;;;7.70;99.90;;;;;;4875824;29;20248;-70
2023/04/12 06:53:13;;;;;;;0.85;0.85;;;7.70;99.90;;;;;;4872408;29;20207;-71
2023/04/12 06:55:40;;;;;;;1.13;1.13;;;7.80;99.90;;;;;;4876403;29;20235;-69
2023/04/12 06:58:06;;;;;;;1.58;1.58;;;8.00;99.90;;;;;;4890274;29;20230;-69
2023/04/12 07:00:33;;;;;;;7.97;0.80;;;8.00;99.90;;;;;;4875737;29;20213;-69
2023/04/12 07:03:00;;;;;;;0.60;0.50;;;8.20;99.90;;;;;;4887216;29;20218;-69
2023/04/12 07:05:27;;;;;;;0.98;0.98;;;8.30;99.90;;;;;;4887602;29;20235;-70
2023/04/12 07:07:53;;;;;;;1.58;1.42;;;8.30;99.90;;;;;;4873272;29;20222;-70
2023/04/12 07:10:21;;;;;;;0.65;0.65;;;8.40;99.90;;;;;;4885948;29;20214;-69
2023/04/12 07:12:50;;;;;;;1.10;1.10;;;8.50;99.90;;;;;;4887228;29;20710;-72
2023/04/12 07:15:17;;;;;;;0.88;0.88;;;8.60;99.90;;;;;;4885223;29;20236;-69
2023/04/12 07:17:44;;;;;;;0.85;0.85;;;8.70;99.90;;;;;;4896933;29;20307;-70
2023/04/12 07:20:12;;;;;;;1.13;1.13;;;8.80;99.90;;;;;;4880842;29;20304;-71
2023/04/12 07:22:38;;;;;;;0.95;0.95;;;9.10;99.90;;;;;;4876992;29;20214;-70
2023/04/12 07:25:08;;;;;;;5.28;1.73;;;9.30;99.90;;;;;;4879609;29;20227;-70
2023/04/12 07:27:37;;;;;;;1.25;1.25;;;9.40;99.90;;;;;;4890271;29;20215;-69
2023/04/12 07:30:04;;;;;;;8.50;2.30;;;9.60;99.90;;;;;;4888531;29;20212;-71
2023/04/12 07:32:31;;;;;;;0.90;0.90;;;9.80;99.90;;;;;;4877989;29;20670;-70
2023/04/12 07:34:58;;;;;;;1.77;1.67;;;9.80;99.90;;;;;;4867340;29;20242;-69
2023/04/12 07:37:24;;;;;;;1.20;1.20;;;9.80;99.90;;;;;;4869975;29;20212;-69
2023/04/12 07:39:51;;;;;;;1.13;1.10;;;9.80;99.90;;;;;;4875230;29;20262;-70
2023/04/12 07:42:18;;;;;;;2.50;1.13;;;9.80;99.90;;;;;;4875694;29;20204;-70
2023/04/12 07:44:46;;;;;;;1.20;1.15;;;9.90;99.90;;;;;;4874973;29;20216;-70
2023/04/12 07:47:13;;;;;;;1.67;0.85;;;9.90;99.90;;;;;;4884893;29;20225;-73
2023/04/12 07:49:40;;;;;;;0.88;0.88;;;10.00;99.90;;;;;;4883936;29;20230;-70
2023/04/12 07:52:07;;;;;;;1.88;1.67;;;10.10;99.90;;;;;;4874822;29;20294;-69
2023/04/12 07:54:34;;;;;;;1.92;1.83;;;10.10;99.90;;;;;;4895911;29;20229;-71
2023/04/12 07:57:02;;;;;;;0.80;0.80;;;10.20;99.90;;;;;;4896013;29;20212;-71
2023/04/12 07:59:29;;;;;;;0.90;0.90;;;10.30;99.90;;;;;;4880540;29;20255;-70
2023/04/12 08:01:58;;;;;;;1.25;1.25;;;10.30;99.90;;;;;;4867780;29;20221;-71
2023/04/12 08:04:26;;;;;;;0.60;0.60;;;10.30;99.90;;;;;;4877867;29;20224;-72
2023/04/12 08:06:52;;;;;;;1.75;1.08;;;10.20;99.90;;;;;;4875249;29;20694;-71
2023/04/12 08:09:19;;;;;;;2.13;2.03;;;10.20;99.90;;;;;;4872143;29;20210;-72
2023/04/12 08:11:46;;;;;;;0.60;0.60;;;10.10;99.90;;;;;;4884531;29;20228;-67
2023/04/12 08:14:14;;;;;;;1.10;1.10;;;10.10;99.90;;;;;;4881464;29;20252;-67
2023/04/12 08:16:40;;;;;;;6.15;2.00;;;10.10;99.90;;;;;;4888287;29;20244;-67
2023/04/12 08:19:08;;;;;;;2.75;1.70;;;10.10;99.90;;;;;;4892555;29;20242;-67
2023/04/12 08:21:35;;;;;;;1.30;1.30;;;10.10;99.90;;;;;;4890902;29;20234;-67
2023/04/12 08:24:02;;;;;;;1.42;1.33;;;10.20;99.90;;;;;;4867409;29;20212;-67
2023/04/12 08:26:29;;;;;;;1.80;1.80;;;10.20;99.90;;;;;;4890586;29;20262;-69
2023/04/12 08:28:57;;;;;;;1.02;0.95;;;10.30;99.90;;;;;;4872156;29;20588;-69
2023/04/12 08:31:24;;;;;;;1.67;1.58;;;10.30;99.90;;;;;;4879603;29;20212;-69
2023/04/12 08:33:51;;;;;;;1.25;1.25;;;10.30;99.90;;;;;;4875910;29;20561;-69
2023/04/12 08:36:19;;;;;;;2.60;2.45;;;10.30;99.90;;;;;;4880485;29;20238;-71
2023/04/12 08:38:51;;;;;;;3.03;2.78;;;10.40;99.90;;;;;;4878004;29;20236;-72
2023/04/12 08:41:18;;;;;;;1.73;1.63;;;10.30;99.90;;;;;;4879520;29;20308;-71
2023/04/12 08:43:46;;;;;;;2.35;2.28;;;10.30;99.90;;;;;;4870405;29;20219;-71
2023/04/12 08:46:15;;;;;;;1.25;1.08;;;10.30;99.90;;;;;;4868884;29;20224;-70
2023/04/12 08:48:44;;;;;;;1.30;1.10;;;10.20;99.90;;;;;;4891908;29;20561;-71
2023/04/12 08:51:13;;;;;;;1.15;0.75;;;10.20;99.90;;;;;;4883370;29;20570;-70
2023/04/12 08:53:41;;;;;;;1.42;1.40;;;10.20;99.90;;;;;;4885547;29;20208;-69
2023/04/12 08:56:10;;;;;;;2.92;0.52;;;10.20;99.90;;;;;;4881706;29;20541;-70
2023/04/12 08:58:39;;;;;;;0.65;0.65;;;10.20;99.90;;;;;;4867828;29;20311;-72
2023/04/12 09:01:12;;;;;;;1.08;1.08;;;10.30;99.90;;;;;;4882251;29;20203;-70
2023/04/12 09:03:39;;;;;;;1.85;0.90;;;10.30;99.90;;;;;;4881813;29;20211;-70
2023/04/12 09:06:06;;;;;;;1.30;1.20;;;10.30;99.90;;;;;;4880699;29;20239;-72
2023/04/12 09:08:34;;;;;;;1.08;1.08;;;10.40;99.90;;;;;;4874165;29;22242;-69
2023/04/12 09:11:02;;;;;;;0.57;0.57;;;10.50;99.90;;;;;;4879332;29;20212;-70
2023/04/12 09:13:33;;;;;;;2.05;0.93;;;10.60;99.90;;;;;;4882091;29;20219;-70
2023/04/12 09:16:00;;;;;;;0.63;0.63;;;10.60;99.90;;;;;;4868891;29;20855;-72
2023/04/12 09:18:27;;;;;;;1.60;1.50;;;10.60;99.90;;;;;;4875815;29;20232;-70
2023/04/12 09:21:06;;;;;;;0.68;0.68;;;10.70;99.90;;;;;;4875056;29;20264;-74
2023/04/12 09:23:34;;;;;;;1.00;1.00;;;10.80;99.90;;;;;;4872913;29;20215;-69
2023/04/12 09:26:03;;;;;;;1.00;1.00;;;10.80;99.90;;;;;;4887102;29;20227;-70
2023/04/12 09:28:30;;;;;;;0.75;0.75;;;10.80;99.90;;;;;;4876685;29;20215;-73
2023/04/12 09:31:00;;;;;;;1.08;0.93;;;11.00;99.90;;;;;;4882612;29;20213;-70
2023/04/12 09:33:34;;;;;;;0.40;0.40;;;11.10;99.90;;;;;;4878072;29;20218;-69
2023/04/12 09:36:02;;;;;;;0.65;0.65;;;11.20;99.90;;;;;;4866359;29;20231;-69
2023/04/12 09:38:29;;;;;;;2.00;0.82;;;11.40;99.90;;;;;;4871749;29;20220;-70
2023/04/12 09:40:56;;;;;;;2.08;1.98;;;11.60;99.90;;;;;;4879842;29;20216;-70
2023/04/12 09:43:38;;;;;;;3.90;1.20;;;11.80;99.90;;;;;;4874137;29;20469;-70
2023/04/12 09:46:12;;;;;;;0.70;0.70;;;12.10;99.90;;;;;;4876029;29;20237;-72
2023/04/12 09:48:39;;;;;;;0.40;0.40;;;12.10;99.90;;;;;;4873063;29;20531;-71
2023/04/12 09:51:06;;;;;;;1.02;0.90;;;12.10;99.90;;;;;;4877605;29;20844;-70
2023/04/12 09:53:35;;;;;;;0.90;0.90;;;12.10;99.90;;;;;;4879936;29;20215;-69
2023/04/12 09:56:03;;;;;;;1.63;1.63;;;12.20;99.90;;;;;;4875207;29;20499;-70
2023/04/12 09:58:32;;;;;;;1.07;0.63;;;12.20;99.90;;;;;;4883312;29;21997;-74
2023/04/12 10:01:03;;;;;;;1.80;1.07;;;12.20;99.90;;;;;;4871561;29;20472;-69
2023/04/12 10:03:29;;;;;;;0.60;0.60;;;12.20;99.90;;;;;;4877849;29;20524;-69
2023/04/12 10:05:56;;;;;;;1.13;1.00;;;12.30;99.90;;;;;;4878655;29;20563;-69
2023/04/12 10:08:23;;;;;;;0.53;0.53;;;12.30;99.90;;;;;;4879462;29;20472;-70
2023/04/12 10:10:53;;;;;;;1.20;0.97;;;12.40;99.90;;;;;;4886861;29;20476;-70
2023/04/12 10:13:22;;;;;;;1.73;0.60;;;12.30;99.90;;;;;;4882311;29;20953;-67
2023/04/12 10:15:51;;;;;;;1.20;1.10;;;12.40;99.90;;;;;;4875639;29;21245;-69
2023/04/12 10:18:19;;;;;;;0.80;0.80;;;12.40;99.90;;;;;;4870219;29;20596;-67
2023/04/12 10:20:47;;;;;;;0.70;0.70;;;12.40;99.90;;;;;;4875632;29;20496;-68
2023/04/12 10:23:13;;;;;;;3.70;1.50;;;12.30;99.90;;;;;;4868658;29;20934;-68
2023/04/12 10:25:43;;;;;;;2.43;0.97;;;12.30;99.90;;;;;;4870069;29;20496;-67
2023/04/12 10:28:17;;;;;;;0.93;0.93;;;12.30;99.90;;;;;;4877243;29;20479;-69
2023/04/12 10:30:44;;;;;;;0.50;0.50;;;12.30;99.90;;;;;;4866731;29;20527;-68
2023/04/12 10:33:19;;;;;;;0.20;0.20;;;12.30;99.90;;;;;;4873334;29;20472;-68
2023/04/12 10:36:11;;;;;;;1.27;0.80;;;12.30;99.90;;;;;;4873174;29;20498;-69
2023/04/12 10:38:45;;;;;;;0.40;0.40;;;12.20;99.90;;;;;;4864639;29;20485;-67
2023/04/12 10:41:15;;;;;;;1.63;0.93;;;12.20;99.90;;;;;;4877692;29;20472;-71
2023/04/12 10:43:42;;;;;;;2.30;0.83;;;12.20;99.90;;;;;;4865662;29;20507;-68
2023/04/12 10:46:53;;;;;;;1.80;0.80;;;12.20;99.90;;;;;;4868820;29;20854;-67
2023/04/12 10:49:20;;;;;;;0.60;0.60;;;12.30;99.90;;;;;;4861584;29;20470;-69
2023/04/12 10:52:15;;;;;;;0.73;0.73;;;12.20;99.90;;;;;;4872457;29;20473;-68
2023/04/12 10:54:42;;;;;;;8.50;1.27;;;12.20;99.90;;;;;;4837008;29;20491;-68
2023/04/12 10:57:44;;;;;;;1.10;0.90;;;12.10;99.90;;;;;;4877795;29;20476;-68
2023/04/12 11:00:11;;;;;;;0.70;0.70;;;12.10;99.90;;;;;;4869746;29;20487;-69
2023/04/12 11:03:04;;;;;;;1.43;1.20;;;12.00;99.90;;;;;;4869131;29;20564;-67
2023/04/12 11:05:31;;;;;;;2.75;1.27;;;11.80;99.90;;;;;;4870851;29;20505;-69
2023/04/12 11:08:00;;;;;;;0.80;0.80;;;11.70;99.90;;;;;;4870233;29;20673;-67
2023/04/12 11:10:28;;;;;;;1.35;1.30;;;11.60;99.90;;;;;;4874120;29;20212;-67
2023/04/12 11:13:07;;;;;;;1.38;1.33;;;11.50;99.90;;;;;;4874685;29;20664;-69
2023/04/12 11:15:34;;;;;;;1.75;1.45;;;11.40;99.90;;;;;;4869762;29;20266;-68
2023/04/12 11:18:05;;;;;;;1.45;1.35;;;11.30;99.90;;;;;;4874027;29;20238;-69
2023/04/12 11:20:32;;;;;;;2.17;1.27;;;11.20;99.90;;;;;;4876310;29;20228;-69
2023/04/12 11:22:59;;;;;;;1.50;1.50;;;11.00;99.90;;;;;;4883728;29;20259;-69
2023/04/12 11:25:26;;;;;;;1.58;1.25;;;10.90;99.90;;;;;;4872827;29;20243;-67
2023/04/12 11:27:53;;;;;;;1.00;1.00;;;10.90;99.90;;;;;;4872541;29;20209;-67
2023/04/12 11:30:22;;;;;;;3.35;2.83;;;10.80;99.90;;;;;;4874338;29;20677;-67
2023/04/12 11:32:49;;;;;;;1.40;1.40;;;10.70;99.90;;;;;;4870796;29;20243;-69
2023/04/12 11:35:19;;;;;;;1.60;1.50;;;10.60;99.90;;;;;;4869063;29;20227;-69
2023/04/12 11:37:45;;;;;;;2.50;2.38;;;10.50;99.90;;;;;;4877295;29;20276;-69
2023/04/12 11:40:12;;;;;;;2.03;1.92;;;10.20;99.90;;;;;;4872812;29;20232;-73
2023/04/12 11:42:40;;;;;;;1.95;1.90;;;10.00;99.90;;;;;;4876584;29;20925;-68
2023/04/12 11:45:09;;;;;;;1.13;1.00;;;10.00;99.90;;;;;;4891472;29;20223;-67
2023/04/12 11:47:42;;;;;;;0.82;0.82;;;9.90;99.90;;;;;;4876167;29;20239;-70
2023/04/12 11:50:10;;;;;;;2.22;2.13;;;9.80;99.90;;;;;;4874729;29;20618;-69
2023/04/12 11:52:37;;;;;;;2.50;2.40;;;9.80;99.90;;;;;;4870306;29;20213;-68
2023/04/12 11:55:07;;;;;;;0.93;0.93;;;9.80;99.90;;;;;;4874514;29;20231;-68
2023/04/12 11:57:34;;;;;;;0.50;0.50;;;9.90;99.90;;;;;;4870506;29;20286;-70
2023/04/12 12:00:04;;;;;;;0.73;0.73;;;9.90;99.90;;;;;;4865289;29;20227;-67
2023/04/12 12:02:34;;;;;;;0.60;0.60;;;9.80;99.90;;;;;;4868127;29;20414;-67
2023/04/12 12:05:02;;;;;;;0.82;0.63;;;9.80;99.90;;;;;;4868472;29;20646;-67
2023/04/12 12:07:29;;;;;;;1.83;0.60;;;9.80;99.90;;;;;;4867252;29;20209;-66
2023/04/12 12:09:56;;;;;;;0.77;0.77;;;9.80;99.90;;;;;;4883768;29;20204;-67
2023/04/12 12:12:23;;;;;;;2.38;0.45;;;9.80;99.90;;;;;;4883673;29;20212;-67
2023/04/12 12:14:50;;;;;;;0.43;0.43;;;9.80;99.90;;;;;;4888108;29;20326;-71
2023/04/12 12:17:17;;;;;;;0.20;0.20;;;9.70;99.90;;;;;;4874932;29;20223;-67
2023/04/12 12:19:45;;;;;;;0.80;0.80;;;9.60;99.90;;;;;;4877096;29;20235;-70
2023/04/12 12:22:15;;;;;;;0.50;0.50;;;9.60;99.90;;;;;;4875944;29;20208;-67
2023/04/12 12:24:46;;;;;;;2.67;0.55;;;9.60;99.90;;;;;;4886991;29;20669;-68
2023/04/12 12:27:13;;;;;;;0.60;0.60;;;9.60;99.90;;;;;;4881498;29;20208;-68
2023/04/12 12:29:40;;;;;;;1.75;1.20;;;9.60;99.90;;;;;;4875992;29;20233;-69
2023/04/12 12:32:12;;;;;;;1.00;0.68;;;9.60;99.90;;;;;;4888351;29;20214;-69
2023/04/12 12:34:40;;;;;;;0.77;0.77;;;9.70;99.90;;;;;;4872371;29;20306;-68
2023/04/12 12:37:16;;;;;;;0.57;0.57;;;9.70;99.90;;;;;;4882781;29;20214;-68
2023/04/12 12:40:10;;;;;;;1.67;1.67;;;9.60;99.90;;;;;;4881914;29;20259;-68
2023/04/12 12:42:38;;;;;;;0.77;0.77;;;9.60;99.90;;;;;;4873686;29;20214;-68
2023/04/12 12:45:06;;;;;;;1.05;0.70;;;9.60;99.90;;;;;;4871223;29;20247;-67
2023/04/12 12:47:33;;;;;;;1.60;1.50;;;9.60;99.90;;;;;;4877461;29;20223;-67
2023/04/12 12:49:59;;;;;;;0.50;0.50;;;9.50;99.90;;;;;;4880159;29;20219;-67
2023/04/12 12:52:27;;;;;;;1.50;1.38;;;9.50;99.90;;;;;;4885847;29;20203;-68
2023/04/12 12:54:54;;;;;;;0.85;0.85;;;9.40;99.90;;;;;;4874835;29;20582;-67
2023/04/12 12:57:21;;;;;;;1.05;0.55;;;9.40;99.90;;;;;;4886679;29;20208;-66
2023/04/12 12:59:48;;;;;;;0.45;0.45;;;9.40;99.90;;;;;;4877159;29;20574;-68
2023/04/12 13:02:17;;;;;;;1.67;1.20;;;9.40;99.90;;;;;;4880377;29;20215;-67
2023/04/12 13:04:43;;;;;;;1.08;1.08;;;9.40;99.90;;;;;;4877074;29;20224;-69
2023/04/12 13:07:10;;;;;;;0.50;0.47;;;9.40;99.90;;;;;;4881173;29;20223;-67
2023/04/12 13:09:38;;;;;;;1.20;1.20;;;9.30;99.90;;;;;;4874594;29;20259;-70
2023/04/12 13:12:05;;;;;;;0.68;0.68;;;9.30;99.90;;;;;;4870133;29;20212;-67
2023/04/12 13:14:32;;;;;;;0.45;0.45;;;9.30;99.90;;;;;;4869367;29;20609;-68
2023/04/12 13:16:58;;;;;;;0.55;0.55;;;9.30;99.90;;;;;;4869147;29;20235;-68
2023/04/12 13:19:25;;;;;;;1.08;1.08;;;9.30;99.90;;;;;;4878542;29;20218;-69
2023/04/12 13:21:52;;;;;;;1.25;0.60;;;9.30;99.90;;;;;;4871349;29;20233;-68
2023/04/12 13:24:19;;;;;;;1.15;1.05;;;9.40;99.90;;;;;;4870848;29;20646;-68
2023/04/12 13:26:47;;;;;;;1.10;1.10;;;9.40;99.90;;;;;;4869040;29;20232;-67
2023/04/12 13:29:13;;;;;;;0.40;0.40;;;9.50;99.90;;;;;;4877424;29;20216;-67
2023/04/12 13:31:40;;;;;;;1.77;1.17;;;9.50;99.90;;;;;;4869947;29;20216;-69
2023/04/12 13:34:07;;;;;;;0.63;0.63;;;9.50;99.90;;;;;;4870798;29;20207;-67
2023/04/12 13:36:33;;;;;;;2.42;0.93;;;9.50;99.90;;;;;;4873717;29;20223;-68
2023/04/12 13:39:00;;;;;;;0.95;0.65;;;9.50;99.90;;;;;;4878552;29;20212;-69
2023/04/12 13:41:29;;;;;;;1.20;0.65;;;9.70;99.90;;;;;;4862802;29;20243;-67
2023/04/12 13:43:57;;;;;;;1.40;1.05;;;9.70;99.90;;;;;;4878694;29;20651;-69
2023/04/12 13:46:24;;;;;;;5.97;1.60;;;9.80;99.90;;;;;;4869308;29;20312;-67
2023/04/12 13:48:51;;;;;;;0.63;0.57;;;9.80;99.90;;;;;;4864390;29;20220;-70
2023/04/12 13:51:18;;;;;;;1.85;1.73;;;9.90;99.90;;;;;;4865344;29;20678;-67
2023/04/12 13:53:45;;;;;;;0.90;0.68;;;9.90;99.90;;;;;;4873277;29;20219;-70
2023/04/12 13:56:11;;;;;;;0.65;0.65;;;9.90;99.90;;;;;;4876268;29;20223;-66
2023/04/12 13:58:39;;;;;;;1.13;1.13;;;9.80;99.90;;;;;;4876985;29;20307;-67
2023/04/12 14:01:08;;;;;;;0.73;0.73;;;9.70;99.90;;;;;;4874234;29;20308;-67
2023/04/12 14:03:35;;;;;;;0.88;0.63;;;9.70;99.90;;;;;;4882480;29;20208;-67
2023/04/12 14:06:02;;;;;;;2.28;0.90;;;9.70;99.90;;;;;;4870955;29;20232;-68
2023/04/12 14:08:29;;;;;;;1.70;0.77;;;9.70;99.90;;;;;;4872922;29;20212;-67
2023/04/12 14:10:56;;;;;;;1.58;0.52;;;9.70;99.90;;;;;;4877788;29;20229;-71
2023/04/12 14:13:22;;;;;;;0.85;0.85;;;9.70;99.90;;;;;;4871356;29;20208;-68
2023/04/12 14:15:50;;;;;;;1.33;0.85;;;9.70;99.90;;;;;;4873548;29;20244;-69
2023/04/12 14:18:20;;;;;;;0.40;0.40;;;9.60;99.90;;;;;;4873053;29;20226;-69
2023/04/12 14:20:51;;;;;;;1.48;0.80;;;9.60;99.90;;;;;;4881748;29;20223;-68
2023/04/12 14:23:18;;;;;;;1.35;1.35;;;9.60;99.90;;;;;;4875450;29;20283;-68
2023/04/12 14:25:45;;;;;;;0.35;0.35;;;9.60;99.90;;;;;;4867319;29;20744;-68
2023/04/12 14:28:15;;;;;;;0.80;0.80;;;9.60;99.90;;;;;;4876473;29;20212;-69
2023/04/12 14:30:42;;;;;;;0.50;0.50;;;9.50;99.90;;;;;;4868573;29;20235;-68
2023/04/12 14:33:09;;;;;;;0.32;0.32;;;9.50;99.90;;;;;;4867849;29;20259;-68
2023/04/12 14:35:37;;;;;;;0.93;0.93;;;9.50;99.90;;;;;;4880076;29;20231;-68
2023/04/12 14:38:04;;;;;;;1.02;1.02;;;9.50;99.90;;;;;;4880669;29;20223;-70
2023/04/12 14:40:31;;;;;;;0.40;0.40;;;9.50;99.90;;;;;;4868096;29;20231;-68
2023/04/12 14:42:58;;;;;;;0.30;0.30;;;9.50;99.90;;;;;;4867285;29;20650;-69
2023/04/12 14:45:26;;;;;;;0.20;0.20;;;9.50;99.90;;;;;;4867726;29;20235;-72
2023/04/12 14:47:53;;;;;;;1.70;1.50;;;9.50;99.90;;;;;;4870696;29;20238;-68
2023/04/12 14:50:20;;;;;;;1.00;1.00;;;9.60;99.90;;;;;;4881436;29;20208;-68
2023/04/12 14:52:48;;;;;;;0.65;0.65;;;9.60;99.90;;;;;;4869345;29;20211;-70
2023/04/12 14:55:15;;;;;;;2.50;1.30;;;9.60;99.90;;;;;;4868452;29;20228;-68
2023/04/12 14:57:42;;;;;;;0.82;0.82;;;9.60;99.90;;;;;;4870935;29;20220;-68
2023/04/12 15:00:12;;;;;;;2.25;0.70;;;9.60;99.90;;;;;;4871438;29;20634;-69
2023/04/12 15:02:39;;;;;;;3.03;1.20;;;9.60;99.90;;;;;;4881733;29;20248;-68
2023/04/12 15:05:07;;;;;;;0.50;0.50;;;9.50;99.90;;;;;;4865780;29;20226;-68
2023/04/12 15:07:34;;;;;;;0.73;0.73;;;9.60;99.90;;;;;;4882262;29;20601;-68
2023/04/12 15:10:03;;;;;;;2.58;2.58;;;9.60;99.90;;;;;;4870056;29;20553;-68
2023/04/12 15:12:32;;;;;;;1.50;0.90;;;9.60;99.90;;;;;;4877530;29;20255;-68
2023/04/12 15:14:59;;;;;;;1.30;1.00;;;9.60;99.90;;;;;;4869172;29;20239;-68
2023/04/12 15:17:25;;;;;;;0.55;0.55;;;9.70;99.90;;;;;;4864738;29;20226;-68
2023/04/12 15:19:52;;;;;;;1.00;0.98;;;9.70;99.90;;;;;;4869986;29;20217;-68
2023/04/12 15:22:19;;;;;;;0.60;0.60;;;9.60;99.90;;;;;;4880869;29;20227;-68
2023/04/12 15:24:45;;;;;;;0.57;0.57;;;9.60;99.90;;;;;;4878195;29;20219;-68
2023/04/12 15:27:14;;;;;;;0.30;0.30;;;9.60;99.90;;;;;;4883838;29;20228;-68
2023/04/12 15:29:40;;;;;;;1.20;1.20;;;9.60;99.90;;;;;;4874987;29;20699;-69
2023/04/12 15:32:07;;;;;;;1.30;1.20;;;9.60;99.90;;;;;;4872063;29;20215;-69
2023/04/12 15:34:34;;;;;;;0.63;0.63;;;9.70;99.90;;;;;;4873625;29;20273;-68
2023/04/12 15:37:01;;;;;;;0.98;0.98;;;9.70;99.90;;;;;;4875757;29;20215;-68
2023/04/12 15:39:27;;;;;;;1.35;1.35;;;9.70;99.90;;;;;;4874600;29;20572;-68
2023/04/12 15:41:54;;;;;;;1.08;1.08;;;9.70;99.90;;;;;;4871922;29;20251;-68
2023/04/12 15:44:23;;;;;;;1.02;1.02;;;9.70;99.90;;;;;;4877396;29;20231;-68
2023/04/12 15:46:50;;;;;;;2.88;1.10;;;9.70;99.90;;;;;;4875474;29;20253;-68
2023/04/12 15:49:17;;;;;;;0.80;0.80;;;9.70;99.90;;;;;;4880875;29;20677;-68
2023/04/12 15:51:44;;;;;;;0.85;0.75;;;9.70;99.90;;;;;;4873717;29;20294;-68
2023/04/12 15:54:10;;;;;;;2.25;2.10;;;9.60;99.90;;;;;;4873192;29;20216;-68
2023/04/12 15:56:37;;;;;;;0.50;0.50;;;9.60;99.90;;;;;;4874603;29;20242;-68
2023/04/12 15:59:04;;;;;;;0.40;0.40;;;9.70;99.90;;;;;;4868678;29;20248;-68
2023/04/12 16:01:34;;;;;;;2.58;2.58;;;9.70;99.90;;;;;;4877585;29;20233;-68
2023/04/12 16:04:01;;;;;;;0.63;0.63;;;9.70;99.90;;;;;;4866305;29;20689;-68
2023/04/12 16:06:33;;;;;;;1.45;1.35;;;9.70;99.90;;;;;;4887469;29;20259;-68
2023/04/12 16:09:00;;;;;;;1.35;1.25;;;9.70;99.90;;;;;;4880329;29;20208;-69
2023/04/12 16:11:27;;;;;;;1.65;1.65;;;9.70;99.90;;;;;;4879007;29;20200;-69
2023/04/12 16:13:54;;;;;;;1.13;1.13;;;9.70;99.90;;;;;;4867761;29;20215;-68
2023/04/12 16:16:23;;;;;;;3.05;1.25;;;9.70;99.90;;;;;;4871363;29;20316;-68
2023/04/12 16:18:52;;;;;;;1.20;1.20;;;9.60;99.90;;;;;;4883180;29;20212;-68
2023/04/12 16:21:21;;;;;;;1.35;1.35;;;9.60;99.90;;;;;;4878858;29;20291;-71
2023/04/12 16:23:49;;;;;;;0.52;0.52;;;9.60;99.90;;;;;;4875204;29;20219;-69
2023/04/12 16:26:20;;;;;;;1.17;1.15;;;9.60;99.90;;;;;;4871540;29;20223;-68
2023/04/12 16:28:47;;;;;;;1.33;1.30;;;9.70;99.90;;;;;;4866251;29;20286;-68
2023/04/12 16:31:14;;;;;;;1.48;1.48;;;9.70;99.90;;;;;;4876557;29;20207;-69
2023/04/12 16:33:42;;;;;;;1.65;1.55;;;9.70;99.90;;;;;;4875275;29;20643;-68
2023/04/12 16:36:10;;;;;;;0.60;0.60;;;9.70;99.90;;;;;;4878490;29;20264;-68
2023/04/12 16:38:36;;;;;;;0.10;0.10;;;9.70;99.90;;;;;;4865411;29;20216;-68
2023/04/12 16:41:04;;;;;;;1.35;1.35;;;9.70;99.90;;;;;;4878000;29;20290;-68
2023/04/12 16:43:31;;;;;;;2.83;2.63;;;9.70;99.90;;;;;;4870019;29;20211;-67
2023/04/12 16:46:03;;;;;;;2.92;2.00;;;9.80;99.90;;;;;;4881446;29;20234;-67
2023/04/12 16:48:30;;;;;;;1.55;0.63;;;9.80;99.90;;;;;;4872178;29;20215;-67
2023/04/12 16:50:57;;;;;;;2.65;1.98;;;9.80;99.90;;;;;;4875308;29;20204;-66
2023/04/12 16:53:25;;;;;;;1.40;1.38;;;9.80;99.90;;;;;;4867267;29;20379;-67
2023/04/12 16:55:52;;;;;;;1.95;1.92;;;9.80;99.90;;;;;;4863137;29;20670;-67
2023/04/12 16:58:19;;;;;;;2.15;1.08;;;9.80;99.90;;;;;;4872401;29;20215;-67